Time;durP1;ratioP1;P1;durP2;ratioP2;P2;SDS_P1;SDS_P2;PMS_P1;PMS_P2;Temp;Humidity;BMP_temperature;BMP_pressure;BME280_temperature;BME280_humidity;BME280_pressure;Samples;Min_cycle;Max_cycle;Signal;HPM_P1;HPM_P2
2024/01/10 00:00:08;;;;;;;345.92;91.10;;;;;;;;;;5053594;28;20111;-51
2024/01/10 00:02:34;;;;;;;240.25;69.38;;;;;;;;;;5034456;28;20084;-53
2024/01/10 00:05:03;;;;;;;229.50;61.42;;;;;;;;;;5053447;28;20036;-52
2024/01/10 00:07:29;;;;;;;417.23;76.25;;;;;;;;;;5053892;28;20033;-54
2024/01/10 00:09:57;;;;;;;489.33;88.78;;;;;;;;;;5053253;28;20473;-53
2024/01/10 00:12:23;;;;;;;506.35;90.75;;;;;;;;;;5053257;28;20049;-54
2024/01/10 00:14:49;;;;;;;527.25;66.75;;;;;;;;;;5053500;28;20040;-51
2024/01/10 00:17:15;;;;;;;293.80;56.75;;;;;;;;;;5053356;28;20039;-52
2024/01/10 00:19:41;;;;;;;408.08;65.05;;;;;;;;;;5034382;28;20071;-51
2024/01/10 00:22:07;;;;;;;179.00;48.88;;;;;;;;;;5053054;28;20037;-51
2024/01/10 00:24:33;;;;;;;402.75;66.07;;;;;;;;;;5034216;28;20033;-54
2024/01/10 00:26:59;;;;;;;368.23;54.05;;;;;;;;;;5052923;28;20037;-52
2024/01/10 00:29:26;;;;;;;327.60;49.25;;;;;;;;;;5052902;28;20024;-49
2024/01/10 00:31:53;;;;;;;261.75;47.60;;;;;;;;;;5033919;28;20044;-54
2024/01/10 00:34:19;;;;;;;299.90;51.45;;;;;;;;;;5052999;28;20076;-53
2024/01/10 00:36:45;;;;;;;267.98;49.30;;;;;;;;;;5033987;28;20037;-55
2024/01/10 00:39:11;;;;;;;243.77;55.15;;;;;;;;;;5052658;28;20159;-51
2024/01/10 00:41:37;;;;;;;278.48;68.68;;;;;;;;;;5052963;28;20056;-52
2024/01/10 00:44:03;;;;;;;220.48;61.60;;;;;;;;;;5052782;28;20021;-55
2024/01/10 00:46:29;;;;;;;201.98;61.83;;;-0.60;99.90;;;;;;5052493;28;20025;-55
2024/01/10 00:48:55;;;;;;;302.90;64.47;;;-0.60;99.90;;;;;;4996581;28;20132;-53
2024/01/10 00:51:20;;;;;;;232.73;60.45;;;-0.60;99.90;;;;;;5030058;28;20038;-53
2024/01/10 00:53:46;;;;;;;224.63;55.08;;;-0.60;99.90;;;;;;5030054;28;20048;-52
2024/01/10 00:56:12;;;;;;;274.95;67.85;;;-0.60;99.90;;;;;;5030266;28;20594;-55
2024/01/10 00:58:38;;;;;;;331.70;88.45;;;-0.60;99.90;;;;;;5030041;28;20040;-50
2024/01/10 01:01:04;;;;;;;229.13;49.85;;;-0.60;99.90;;;;;;5029737;28;20041;-51
2024/01/10 01:03:30;;;;;;;198.80;41.85;;;-0.60;99.90;;;;;;4971134;28;20530;-53
2024/01/10 01:05:56;;;;;;;224.00;41.95;;;;;;;;;;4971163;28;20039;-52
2024/01/10 01:08:22;;;;;;;163.52;40.60;;;;;;;;;;4971222;28;20097;-53
2024/01/10 01:10:48;;;;;;;121.05;39.70;;;-1.00;99.90;;;;;;4955106;28;20065;-53
2024/01/10 01:13:13;;;;;;;123.72;41.75;;;-0.70;99.90;;;;;;4954817;28;20513;-52
2024/01/10 01:15:39;;;;;;;138.82;41.75;;;-0.90;99.90;;;;;;4970955;28;20123;-51
2024/01/10 01:18:05;;;;;;;170.32;45.30;;;-1.20;99.90;;;;;;4970782;28;20043;-54
2024/01/10 01:20:32;;;;;;;270.73;62.72;;;-1.20;99.90;;;;;;5000399;28;20054;-51
2024/01/10 01:22:58;;;;;;;211.63;56.72;;;-1.10;99.90;;;;;;4961516;28;20037;-54
2024/01/10 01:25:23;;;;;;;245.98;51.53;;;-1.00;99.90;;;;;;5009866;28;20470;-53
2024/01/10 01:27:49;;;;;;;186.63;53.90;;;-1.00;99.90;;;;;;5010119;28;20041;-54
2024/01/10 01:30:15;;;;;;;158.88;47.92;;;-1.00;99.90;;;;;;5009917;28;20508;-53
2024/01/10 01:32:41;;;;;;;152.95;43.00;;;-1.00;99.90;;;;;;4960820;28;20033;-51
2024/01/10 01:35:07;;;;;;;170.70;45.40;;;;;;;;;;5041437;28;20051;-55
2024/01/10 01:37:32;;;;;;;204.50;41.20;;;-2.50;99.90;;;;;;5051717;28;20493;-50
2024/01/10 01:39:58;;;;;;;218.38;49.38;;;-2.70;99.90;;;;;;5051691;28;20025;-53
2024/01/10 01:42:45;;;;;;;177.90;48.75;;;-2.80;99.90;;;;;;5028964;28;20196;-53
2024/01/10 01:45:11;;;;;;;233.45;43.88;;;-2.50;99.90;;;;;;5029367;28;20044;-52
2024/01/10 01:47:39;;;;;;;158.77;41.83;;;-2.60;99.90;;;;;;5012728;28;20052;-51
2024/01/10 01:50:06;;;;;;;209.93;47.35;;;-2.50;99.90;;;;;;5029479;28;20026;-53
2024/01/10 01:52:34;;;;;;;211.95;47.60;;;-2.30;99.90;;;;;;4996092;28;20034;-51
2024/01/10 01:55:00;;;;;;;203.65;45.40;;;-2.10;99.90;;;;;;5029144;28;20058;-52
2024/01/10 01:57:27;;;;;;;207.45;47.25;;;-2.20;99.90;;;;;;5029335;28;20108;-50
2024/01/10 01:59:52;;;;;;;258.02;52.25;;;-2.00;99.90;;;;;;5029109;28;20049;-53
2024/01/10 02:02:20;;;;;;;210.15;48.42;;;-1.90;99.90;;;;;;5015297;28;20049;-51
2024/01/10 02:04:46;;;;;;;180.43;45.03;;;-1.80;99.90;;;;;;5033160;28;20037;-52
2024/01/10 02:07:12;;;;;;;204.52;44.33;;;-1.70;99.90;;;;;;5016578;28;20037;-55
2024/01/10 02:09:38;;;;;;;145.57;42.15;;;-2.30;99.90;;;;;;5000023;28;20038;-53
2024/01/10 02:12:04;;;;;;;213.82;46.90;;;-2.40;99.90;;;;;;5033314;28;20497;-54
2024/01/10 02:14:30;;;;;;;175.57;46.97;;;-2.40;99.90;;;;;;4999908;28;20069;-50
2024/01/10 02:16:56;;;;;;;247.23;50.10;;;-2.30;99.90;;;;;;5016413;28;20048;-49
2024/01/10 02:19:23;;;;;;;214.10;50.30;;;-2.40;99.90;;;;;;5036740;28;20388;-52
2024/01/10 02:21:50;;;;;;;274.90;50.47;;;-2.80;99.90;;;;;;5055209;28;20104;-52
2024/01/10 02:24:15;;;;;;;239.35;47.95;;;-2.60;99.90;;;;;;5055503;28;20029;-53
2024/01/10 02:26:42;;;;;;;197.13;42.28;;;-2.70;99.90;;;;;;5055114;28;20389;-50
2024/01/10 02:29:08;;;;;;;294.90;50.97;;;;;;;;;;5055260;28;20032;-53
2024/01/10 02:31:33;;;;;;;223.77;46.22;;;-2.90;99.90;;;;;;5055607;28;20434;-54
2024/01/10 02:33:59;;;;;;;227.45;41.63;;;-2.50;99.90;;;;;;5055083;28;20112;-50
2024/01/10 02:36:25;;;;;;;162.98;36.75;;;-3.00;99.90;;;;;;5003260;28;20037;-50
2024/01/10 02:38:51;;;;;;;219.18;41.50;;;-3.00;99.90;;;;;;5036162;28;20041;-52
2024/01/10 02:41:17;;;;;;;158.43;37.10;;;-3.20;99.90;;;;;;5055139;28;20115;-56
2024/01/10 02:43:43;;;;;;;210.35;39.65;;;-2.90;99.90;;;;;;5055058;28;20020;-51
2024/01/10 02:46:08;;;;;;;230.23;42.00;;;-2.60;99.90;;;;;;5054998;28;20035;-51
2024/01/10 02:48:34;;;;;;;360.55;52.17;;;-2.20;99.90;;;;;;5036175;28;20041;-51
2024/01/10 02:51:00;;;;;;;185.50;39.53;;;-2.20;99.90;;;;;;5055088;28;20041;-50
2024/01/10 02:53:25;;;;;;;157.15;39.72;;;-2.30;99.90;;;;;;5054661;28;20029;-51
2024/01/10 02:55:52;;;;;;;145.07;38.25;;;;;;;;;;5054577;28;20083;-54
2024/01/10 02:58:18;;;;;;;77.97;28.17;;;-2.90;99.90;;;;;;5035786;28;20037;-49
2024/01/10 03:00:44;;;;;;;82.95;29.60;;;;;;;;;;5054311;28;20621;-50
2024/01/10 03:03:11;;;;;;;116.40;34.15;;;-4.20;99.90;;;;;;5054710;28;20107;-54
2024/01/10 03:05:36;;;;;;;103.65;35.08;;;-4.40;99.90;;;;;;5054476;28;20028;-50
2024/01/10 03:08:04;;;;;;;144.73;37.38;;;-4.00;99.90;;;;;;5054641;28;20025;-52
2024/01/10 03:10:29;;;;;;;76.80;27.88;;;-3.40;99.90;;;;;;5054454;28;20044;-54
2024/01/10 03:12:55;;;;;;;141.40;35.20;;;-4.00;99.90;;;;;;5054247;28;20080;-53
2024/01/10 03:15:21;;;;;;;150.77;32.58;;;-4.00;99.90;;;;;;5054631;28;20488;-52
2024/01/10 03:17:46;;;;;;;139.00;33.85;;;-4.00;99.90;;;;;;5035421;28;20065;-52
2024/01/10 03:20:12;;;;;;;135.43;34.95;;;-3.80;99.90;;;;;;5054313;28;20056;-52
2024/01/10 03:22:38;;;;;;;150.90;34.38;;;;;;;;;;5035443;28;20045;-54
2024/01/10 03:25:04;;;;;;;115.57;29.38;;;-3.70;99.90;;;;;;5035413;28;20036;-51
2024/01/10 03:27:30;;;;;;;123.35;35.65;;;-4.30;99.90;;;;;;5054590;28;20029;-52
2024/01/10 03:29:56;;;;;;;137.13;32.20;;;-4.10;99.90;;;;;;5054453;28;20104;-55
2024/01/10 03:32:22;;;;;;;123.50;34.85;;;-4.30;99.90;;;;;;5054126;28;20021;-56
2024/01/10 03:34:51;;;;;;;91.07;32.42;;;-4.00;99.90;;;;;;5035178;28;20067;-53
2024/01/10 03:37:17;;;;;;;107.93;31.20;;;-3.80;99.90;;;;;;5053962;28;20028;-55
2024/01/10 03:39:42;;;;;;;127.80;34.85;;;-3.80;99.90;;;;;;5034920;28;20397;-50
2024/01/10 03:42:08;;;;;;;133.50;31.38;;;;;;;;;;5053699;28;20029;-52
2024/01/10 03:44:34;;;;;;;165.43;32.03;;;-3.60;99.90;;;;;;5054367;28;20102;-52
2024/01/10 03:47:00;;;;;;;145.43;38.05;;;;;;;;;;5053693;28;20430;-54
2024/01/10 03:49:26;;;;;;;95.38;27.10;;;;;;;;;;5053883;28;20029;-53
2024/01/10 03:51:52;;;;;;;125.30;32.13;;;;;;;;;;5053646;28;20110;-53
2024/01/10 03:54:19;;;;;;;155.68;34.85;;;;;;;;;;5053499;28;20037;-51
2024/01/10 03:56:44;;;;;;;125.88;35.40;;;-3.30;99.90;;;;;;5053897;28;20025;-56
2024/01/10 03:59:10;;;;;;;92.88;32.53;;;-3.20;99.90;;;;;;5034657;28;20119;-54
2024/01/10 04:01:39;;;;;;;144.35;33.38;;;;;;;;;;5053495;28;20031;-52
2024/01/10 04:04:05;;;;;;;110.25;33.47;;;-2.90;99.90;;;;;;5053643;28;20021;-51
2024/01/10 04:06:30;;;;;;;121.35;41.17;;;-3.00;99.90;;;;;;5053507;28;20112;-53
2024/01/10 04:08:56;;;;;;;178.95;48.85;;;-2.80;99.90;;;;;;5053545;28;20036;-53
2024/01/10 04:11:22;;;;;;;139.10;34.60;;;-2.60;99.90;;;;;;5034587;28;20048;-50
2024/01/10 04:13:47;;;;;;;117.35;26.70;;;-2.60;99.90;;;;;;5034470;28;20484;-56
2024/01/10 04:16:13;;;;;;;89.88;26.38;;;-3.60;99.90;;;;;;5053105;28;20141;-49
2024/01/10 04:18:39;;;;;;;110.55;32.60;;;-4.00;99.90;;;;;;5053189;28;20025;-51
2024/01/10 04:21:05;;;;;;;105.28;31.67;;;-4.10;99.90;;;;;;5053135;28;20082;-56
2024/01/10 04:23:33;;;;;;;86.95;29.08;;;-4.30;99.90;;;;;;5052607;28;20033;-56
2024/01/10 04:25:58;;;;;;;122.43;32.72;;;-4.50;99.90;;;;;;5052641;28;20021;-54
2024/01/10 04:28:24;;;;;;;117.28;33.45;;;-4.30;99.90;;;;;;5053187;28;20044;-51
2024/01/10 04:30:50;;;;;;;139.23;33.88;;;-4.10;99.90;;;;;;5034163;28;20065;-54
2024/01/10 04:33:15;;;;;;;88.50;30.98;;;-4.20;99.90;;;;;;5052776;28;20035;-53
2024/01/10 04:35:41;;;;;;;96.63;37.13;;;-3.90;99.90;;;;;;5052774;28;20074;-52
2024/01/10 04:38:07;;;;;;;89.35;34.60;;;-3.70;99.90;;;;;;5052972;28;20025;-50
2024/01/10 04:40:32;;;;;;;108.63;31.35;;;-3.90;99.90;;;;;;5050343;28;20062;-54
2024/01/10 04:42:58;;;;;;;94.80;36.17;;;-4.20;99.90;;;;;;5033953;28;20040;-51
2024/01/10 04:45:24;;;;;;;135.57;37.50;;;-4.10;99.90;;;;;;5052901;28;20025;-57
2024/01/10 04:47:50;;;;;;;76.82;33.22;;;-4.10;99.90;;;;;;5052486;28;20472;-54
2024/01/10 04:50:15;;;;;;;86.25;35.38;;;-3.80;99.90;;;;;;5052476;28;20025;-49
2024/01/10 04:52:41;;;;;;;105.45;37.75;;;-3.50;99.90;;;;;;5052886;28;20039;-54
2024/01/10 04:55:07;;;;;;;84.35;33.65;;;-3.20;99.90;;;;;;5052456;28;20033;-54
2024/01/10 04:57:33;;;;;;;101.63;33.72;;;-3.10;99.90;;;;;;5033490;28;20112;-55
2024/01/10 04:59:59;;;;;;;91.75;32.03;;;-2.90;99.90;;;;;;5052228;28;20140;-52
2024/01/10 05:02:25;;;;;;;120.43;30.83;;;-3.00;99.90;;;;;;5052603;28;20024;-54
2024/01/10 05:04:51;;;;;;;107.95;30.80;;;-3.10;99.90;;;;;;5052183;28;20112;-51
2024/01/10 05:07:17;;;;;;;116.63;31.88;;;-3.20;99.90;;;;;;5033509;28;20112;-55
2024/01/10 05:09:42;;;;;;;95.80;28.35;;;-3.40;99.90;;;;;;5052500;28;20105;-51
2024/01/10 05:12:08;;;;;;;74.50;32.10;;;-3.70;99.90;;;;;;5052452;28;20043;-55
2024/01/10 05:14:34;;;;;;;83.90;32.47;;;-3.50;99.90;;;;;;5052187;28;20029;-52
2024/01/10 05:16:59;;;;;;;104.50;30.15;;;-3.30;99.90;;;;;;5049030;28;20037;-54
2024/01/10 05:19:25;;;;;;;129.13;31.85;;;-3.30;99.90;;;;;;5032779;28;20040;-54
2024/01/10 05:21:51;;;;;;;112.40;29.02;;;-3.30;99.90;;;;;;5052113;28;20040;-54
2024/01/10 05:24:18;;;;;;;114.03;31.65;;;-3.30;99.90;;;;;;5033295;28;20116;-53
2024/01/10 05:26:44;;;;;;;133.98;32.70;;;-3.30;99.90;;;;;;5050748;28;20032;-53
2024/01/10 05:29:10;;;;;;;101.90;29.80;;;-3.40;99.90;;;;;;5033309;28;20040;-55
2024/01/10 05:31:36;;;;;;;93.07;29.52;;;-3.20;99.90;;;;;;5032859;28;20036;-52
2024/01/10 05:34:01;;;;;;;116.05;32.40;;;-3.20;99.90;;;;;;5032138;28;20049;-55
2024/01/10 05:36:27;;;;;;;86.35;31.77;;;-3.20;99.90;;;;;;5050700;28;20031;-49
2024/01/10 05:38:53;;;;;;;117.93;33.65;;;-3.10;99.90;;;;;;5031771;28;20366;-51
2024/01/10 05:41:19;;;;;;;145.45;43.50;;;-3.10;99.90;;;;;;5051009;28;20364;-53
2024/01/10 05:43:45;;;;;;;112.28;34.05;;;-3.20;99.90;;;;;;5031596;28;20087;-53
2024/01/10 05:46:10;;;;;;;116.75;32.38;;;-3.20;99.90;;;;;;5050360;28;20559;-50
2024/01/10 05:48:37;;;;;;;180.10;39.25;;;-3.20;99.90;;;;;;5050749;28;20028;-52
2024/01/10 05:51:03;;;;;;;98.82;37.38;;;-3.20;99.90;;;;;;5050684;28;20075;-51
2024/01/10 05:53:28;;;;;;;100.03;36.55;;;-3.10;99.90;;;;;;5048658;28;20021;-52
2024/01/10 05:55:54;;;;;;;131.50;35.80;;;-3.10;99.90;;;;;;5050496;28;20158;-52
2024/01/10 05:58:20;;;;;;;164.88;37.35;;;-3.10;99.90;;;;;;5030211;28;20041;-51
2024/01/10 06:00:46;;;;;;;120.80;35.65;;;-3.20;99.90;;;;;;5050179;28;20047;-51
2024/01/10 06:03:11;;;;;;;123.38;32.80;;;-3.30;99.90;;;;;;5051164;28;20029;-48
2024/01/10 06:05:37;;;;;;;118.45;31.92;;;-3.30;99.90;;;;;;5051230;28;20051;-50
2024/01/10 06:08:04;;;;;;;89.03;34.78;;;-3.30;99.90;;;;;;5051463;28;20075;-51
2024/01/10 06:10:29;;;;;;;124.43;36.42;;;-3.30;99.90;;;;;;4999950;28;20060;-52
2024/01/10 06:12:56;;;;;;;82.93;34.95;;;-3.20;99.90;;;;;;5032700;28;20084;-49
2024/01/10 06:15:22;;;;;;;98.72;35.78;;;-3.20;99.90;;;;;;5051644;28;20045;-52
2024/01/10 06:17:49;;;;;;;204.82;42.80;;;-3.10;99.90;;;;;;5051271;28;20028;-50
2024/01/10 06:20:15;;;;;;;101.03;36.78;;;-3.00;99.90;;;;;;5051385;28;20477;-52
2024/01/10 06:22:41;;;;;;;120.03;39.70;;;-2.90;99.90;;;;;;5032461;28;20098;-51
2024/01/10 06:25:07;;;;;;;114.07;35.55;;;-2.80;99.90;;;;;;5031242;28;20033;-50
2024/01/10 06:27:33;;;;;;;137.52;33.10;;;-2.80;99.90;;;;;;5051549;28;20074;-50
2024/01/10 06:29:59;;;;;;;135.13;36.75;;;-2.90;99.90;;;;;;5050339;28;20487;-50
2024/01/10 06:32:25;;;;;;;174.73;37.95;;;-2.90;99.90;;;;;;5048921;28;20032;-52
2024/01/10 06:34:52;;;;;;;183.35;39.83;;;-2.90;99.90;;;;;;5050425;28;20053;-49
2024/01/10 06:37:18;;;;;;;165.68;39.75;;;-2.80;99.90;;;;;;5049959;28;20036;-51
2024/01/10 06:39:44;;;;;;;134.90;38.65;;;-2.80;99.90;;;;;;5051104;28;20021;-52
2024/01/10 06:42:11;;;;;;;124.97;40.85;;;-2.60;99.90;;;;;;5032597;28;20033;-51
2024/01/10 06:44:37;;;;;;;127.45;49.10;;;-2.70;99.90;;;;;;5032505;28;20036;-49
2024/01/10 06:47:03;;;;;;;142.43;54.92;;;-3.10;99.90;;;;;;5051783;28;20025;-49
2024/01/10 06:49:30;;;;;;;235.68;68.07;;;-3.50;99.90;;;;;;5054910;28;20025;-51
2024/01/10 06:51:55;;;;;;;210.02;63.88;;;-3.90;99.90;;;;;;5054907;28;20496;-52
2024/01/10 06:54:21;;;;;;;193.43;55.33;;;-3.30;99.90;;;;;;5054622;28;20040;-51
2024/01/10 06:56:47;;;;;;;177.95;47.85;;;-2.90;99.90;;;;;;5054894;28;20032;-49
2024/01/10 06:59:12;;;;;;;129.88;51.15;;;-2.70;99.90;;;;;;5054568;28;20057;-49
2024/01/10 07:01:39;;;;;;;138.23;48.03;;;-2.50;99.90;;;;;;5054498;28;20029;-51
2024/01/10 07:04:05;;;;;;;179.02;60.08;;;-2.50;99.90;;;;;;5035710;28;20044;-51
2024/01/10 07:06:31;;;;;;;133.85;55.75;;;-2.30;99.90;;;;;;5054601;28;20028;-52
2024/01/10 07:08:58;;;;;;;184.70;73.60;;;-2.20;99.90;;;;;;5054408;28;20083;-52
2024/01/10 07:11:24;;;;;;;205.35;82.55;;;-2.20;99.90;;;;;;5054507;28;20064;-51
2024/01/10 07:13:50;;;;;;;210.50;72.95;;;-2.60;99.90;;;;;;5054186;28;20094;-48
2024/01/10 07:16:16;;;;;;;180.32;63.42;;;-3.30;99.90;;;;;;5052325;28;20037;-50
2024/01/10 07:18:42;;;;;;;164.82;64.53;;;-3.60;99.90;;;;;;5054336;28;20040;-52
2024/01/10 07:21:09;;;;;;;253.63;82.10;;;-3.90;99.90;;;;;;5052546;28;20032;-52
2024/01/10 07:23:35;;;;;;;125.00;38.60;;;-4.00;99.90;;;;;;5035512;28;20033;-51
2024/01/10 07:26:01;;;;;;;116.28;36.80;;;-4.00;99.90;;;;;;5054532;28;20071;-51
2024/01/10 07:28:27;;;;;;;122.68;37.42;;;-3.90;99.90;;;;;;5053683;28;20420;-48
2024/01/10 07:30:52;;;;;;;99.38;37.30;;;-3.70;99.90;;;;;;5053652;28;20037;-49
2024/01/10 07:33:18;;;;;;;137.48;35.28;;;-3.70;99.90;;;;;;5054232;28;20017;-51
2024/01/10 07:35:44;;;;;;;127.60;37.70;;;-3.60;99.90;;;;;;5053673;28;20037;-52
2024/01/10 07:38:10;;;;;;;102.80;38.05;;;-2.90;99.90;;;;;;5052830;28;20033;-49
2024/01/10 07:40:36;;;;;;;131.38;40.28;;;-2.40;99.90;;;;;;5053254;28;20086;-49
2024/01/10 07:43:02;;;;;;;198.60;44.30;;;-2.40;99.90;;;;;;5054136;28;20461;-51
2024/01/10 07:45:28;;;;;;;150.23;36.28;;;-2.40;99.90;;;;;;5053431;28;20048;-49
2024/01/10 07:47:55;;;;;;;116.28;39.60;;;-3.00;99.90;;;;;;5053287;28;20477;-49
2024/01/10 07:50:22;;;;;;;124.18;45.95;;;-2.70;99.90;;;;;;5053660;28;20032;-50
2024/01/10 07:52:47;;;;;;;125.40;59.00;;;-2.30;99.90;;;;;;5053195;28;20025;-49
2024/01/10 07:55:13;;;;;;;106.68;54.20;;;-2.40;99.90;;;;;;5053010;28;20029;-52
2024/01/10 07:57:39;;;;;;;107.20;48.42;;;-2.40;99.90;;;;;;5053053;28;20025;-51
2024/01/10 08:00:12;;;;;;;96.68;44.65;;;-2.20;99.90;;;;;;5015763;28;20124;-52
2024/01/10 08:02:40;;;;;;;94.43;41.03;;;-1.90;99.90;;;;;;5051230;28;20025;-51
2024/01/10 08:05:10;;;;;;;90.80;38.85;;;-1.60;99.90;;;;;;5017903;28;20029;-51
2024/01/10 08:07:37;;;;;;;73.50;34.22;;;-1.40;99.90;;;;;;5035071;28;20403;-48
2024/01/10 08:10:08;;;;;;;75.95;36.47;;;-1.30;99.90;;;;;;5053184;28;20060;-50
2024/01/10 08:12:34;;;;;;;94.13;44.50;;;-1.10;99.90;;;;;;5017844;28;20037;-52
2024/01/10 08:15:00;;;;;;;97.55;48.88;;;-0.60;99.90;;;;;;5052425;28;20110;-49
2024/01/10 08:17:26;;;;;;;91.32;43.78;;;-0.40;99.90;;;;;;5053286;28;20109;-50
2024/01/10 08:19:52;;;;;;;111.78;45.55;;;-0.50;99.90;;;;;;5053133;28;20109;-50
2024/01/10 08:22:19;;;;;;;95.25;43.13;;;-0.60;99.90;;;;;;5052349;28;20476;-49
2024/01/10 08:24:45;;;;;;;85.65;36.70;;;;;;;;;;5052563;28;20037;-49
2024/01/10 08:27:11;;;;;;;106.95;40.40;;;-0.50;99.90;;;;;;5053155;28;20029;-50
2024/01/10 08:29:37;;;;;;;99.05;43.63;;;-0.50;99.90;;;;;;5034189;28;20037;-49
2024/01/10 08:32:03;;;;;;;160.38;88.28;;;-0.80;99.90;;;;;;5051331;28;20477;-52
2024/01/10 08:34:29;;;;;;;81.20;31.35;;;0.00;99.90;;;;;;5044843;28;20091;-50
2024/01/10 08:36:55;;;;;;;63.95;24.73;;;-1.00;99.40;;;;;;5049298;28;20061;-49
2024/01/10 08:39:25;;;;;;;87.90;32.45;;;;;;;;;;5050949;28;20103;-52
2024/01/10 08:41:52;;;;;;;71.93;31.42;;;-2.20;99.90;;;;;;5052339;28;20028;-51
2024/01/10 08:44:18;;;;;;;65.15;29.30;;;-2.20;99.90;;;;;;5051775;28;20460;-49
2024/01/10 08:46:44;;;;;;;45.63;23.75;;;-2.30;99.90;;;;;;5051614;28;20025;-51
2024/01/10 08:49:10;;;;;;;33.67;16.67;;;-3.10;99.90;;;;;;5051368;28;20033;-50
2024/01/10 08:51:35;;;;;;;70.43;35.58;;;-2.60;99.90;;;;;;5051544;28;20108;-52
2024/01/10 08:54:01;;;;;;;59.92;27.92;;;-1.80;99.90;;;;;;5051489;28;20045;-49
2024/01/10 08:56:27;;;;;;;71.40;30.38;;;-1.00;99.90;;;;;;5052133;28;20053;-52
2024/01/10 08:58:53;;;;;;;74.35;35.45;;;-0.30;99.90;;;;;;5032677;28;20033;-49
2024/01/10 09:01:19;;;;;;;93.28;39.33;;;0.20;99.90;;;;;;5047608;28;20033;-50
2024/01/10 09:03:45;;;;;;;69.22;35.80;;;0.60;99.90;;;;;;5050298;28;20055;-51
2024/01/10 09:06:12;;;;;;;112.65;50.80;;;-0.10;99.90;;;;;;5051236;28;20025;-53
2024/01/10 09:08:39;;;;;;;60.67;31.30;;;0.30;99.90;;;;;;5032238;28;20072;-54
2024/01/10 09:11:05;;;;;;;54.35;27.30;;;0.30;99.90;;;;;;4997559;28;20497;-50
2024/01/10 09:13:31;;;;;;;51.03;23.95;;;-0.10;99.90;;;;;;5051977;28;20044;-52
2024/01/10 09:15:57;;;;;;;58.88;29.85;;;-0.60;99.90;;;;;;5050425;28;20040;-52
2024/01/10 09:18:23;;;;;;;52.55;28.92;;;-1.20;99.90;;;;;;5051197;28;20029;-51
2024/01/10 09:20:49;;;;;;;72.13;38.15;;;-1.00;99.90;;;;;;5031614;28;20025;-50
2024/01/10 09:23:15;;;;;;;74.68;39.30;;;0.40;99.90;;;;;;5051304;28;20040;-49
2024/01/10 09:25:41;;;;;;;43.97;25.77;;;1.80;99.90;;;;;;5032342;28;20257;-53
2024/01/10 09:28:07;;;;;;;49.53;30.77;;;1.40;99.50;;;;;;5051083;28;20025;-55
2024/01/10 09:30:33;;;;;;;45.03;26.65;;;1.80;99.90;;;;;;5050417;28;20035;-57
2024/01/10 09:33:00;;;;;;;45.42;28.42;;;2.80;98.90;;;;;;5051162;28;20021;-52
2024/01/10 09:35:26;;;;;;;38.45;24.13;;;2.90;99.10;;;;;;5051034;28;20033;-56
2024/01/10 09:37:53;;;;;;;49.38;30.92;;;3.30;97.50;;;;;;5050919;28;20036;-55
2024/01/10 09:40:21;;;;;;;40.05;24.15;;;4.00;97.30;;;;;;5051041;28;20392;-54
2024/01/10 09:42:49;;;;;;;54.28;34.22;;;3.90;95.90;;;;;;5050890;28;20033;-51
2024/01/10 09:45:17;;;;;;;49.25;31.33;;;;;;;;;;5050863;28;20024;-53
2024/01/10 09:47:45;;;;;;;55.83;34.22;;;;;;;;;;5051054;28;20112;-55
2024/01/10 09:50:11;;;;;;;42.53;27.90;;;;;;;;;;5050916;28;20025;-55
2024/01/10 09:52:52;;;;;;;45.20;28.13;;;9.00;92.10;;;;;;5050409;28;20036;-54
2024/01/10 09:55:21;;;;;;;43.92;28.45;;;8.60;90.10;;;;;;5050620;28;20033;-52
2024/01/10 09:57:47;;;;;;;40.25;28.45;;;;;;;;;;5050755;28;20124;-54
2024/01/10 10:00:15;;;;;;;42.30;28.15;;;;;;;;;;5050760;28;20093;-55
2024/01/10 10:02:42;;;;;;;44.50;29.73;;;10.60;99.90;;;;;;5031800;28;20037;-53
2024/01/10 10:05:15;;;;;;;44.22;30.73;;;;;;;;;;5050799;28;20036;-56
2024/01/10 10:07:44;;;;;;;38.78;28.90;;;12.30;84.30;;;;;;5050986;28;20115;-53
2024/01/10 10:10:12;;;;;;;39.60;26.40;;;12.50;83.30;;;;;;5050561;28;20116;-55
2024/01/10 10:12:45;;;;;;;54.15;38.17;;;11.60;81.70;;;;;;5050920;28;20040;-53
2024/01/10 10:15:12;;;;;;;45.35;33.28;;;12.50;82.30;;;;;;5050005;28;20099;-54
2024/01/10 10:17:45;;;;;;;45.25;32.90;;;12.80;82.10;;;;;;5039332;28;20033;-54
2024/01/10 10:20:13;;;;;;;41.38;30.30;;;13.20;82.20;;;;;;5049851;28;20083;-55
2024/01/10 10:22:39;;;;;;;47.45;33.58;;;;;;;;;;5051524;28;20028;-55
2024/01/10 10:25:06;;;;;;;45.17;31.73;;;;;;;;;;5054475;28;20056;-54
2024/01/10 10:27:32;;;;;;;44.85;32.53;;;13.70;78.10;;;;;;5054546;28;20037;-56
2024/01/10 10:29:57;;;;;;;43.90;27.52;;;13.90;78.00;;;;;;5054730;28;20037;-55
2024/01/10 10:32:23;;;;;;;74.75;39.03;;;13.50;78.30;;;;;;5054455;28;20522;-56
2024/01/10 10:34:49;;;;;;;57.50;35.50;;;14.10;77.60;;;;;;5054378;28;20550;-57
2024/01/10 10:37:15;;;;;;;56.45;37.05;;;;;;;;;;5051348;28;20081;-53
2024/01/10 10:39:41;;;;;;;46.17;33.70;;;14.40;91.80;;;;;;5050766;28;20121;-53
2024/01/10 10:42:07;;;;;;;38.55;28.98;;;14.60;75.90;;;;;;5051597;28;20111;-54
2024/01/10 10:44:40;;;;;;;38.65;29.33;;;14.70;75.20;;;;;;5051529;28;20088;-53
2024/01/10 10:47:10;;;;;;;44.22;31.98;;;14.40;75.30;;;;;;5000891;28;20033;-53
2024/01/10 10:49:46;;;;;;;41.03;32.00;;;14.20;75.70;;;;;;5042403;28;20036;-56
2024/01/10 10:52:12;;;;;;;45.80;34.20;;;;;;;;;;5042204;28;20049;-57
2024/01/10 10:54:38;;;;;;;47.92;36.90;;;14.20;99.00;;;;;;5040449;28;20033;-53
2024/01/10 10:57:05;;;;;;;49.47;36.13;;;14.30;75.70;;;;;;5015244;28;20026;-53
2024/01/10 10:59:35;;;;;;;47.38;36.42;;;14.00;75.80;;;;;;5040303;28;20424;-54
2024/01/10 11:02:01;;;;;;;50.85;39.30;;;14.30;75.50;;;;;;5044494;28;20045;-53
2024/01/10 11:04:28;;;;;;;79.68;56.78;;;14.00;74.80;;;;;;5040531;28;20033;-56
2024/01/10 11:06:54;;;;;;;88.90;60.92;;;13.90;75.60;;;;;;5022965;28;20048;-52
2024/01/10 11:09:23;;;;;;;108.50;74.40;;;14.00;75.90;;;;;;5052742;28;20033;-55
2024/01/10 11:12:11;;;;;;;103.93;73.82;;;14.20;92.70;;;;;;5053782;28;20056;-55
2024/01/10 11:14:37;;;;;;;104.57;66.95;;;;;;;;;;5053384;28;20033;-54
2024/01/10 11:17:06;;;;;;;97.30;67.47;;;13.10;74.90;;;;;;5053506;28;20037;-55
2024/01/10 11:19:42;;;;;;;91.15;62.92;;;;;;;;;;5053457;28;20682;-55
2024/01/10 11:22:25;;;;;;;98.00;66.25;;;12.40;99.90;;;;;;5058862;28;20067;-55
2024/01/10 11:24:52;;;;;;;114.32;77.22;;;;;;;;;;5053537;28;20036;-55
2024/01/10 11:27:18;;;;;;;115.93;79.78;;;;;;;;;;5053191;28;20037;-53
2024/01/10 11:29:47;;;;;;;107.13;74.45;;;12.20;99.90;;;;;;5053133;28;20082;-54
2024/01/10 11:32:15;;;;;;;124.03;81.72;;;12.20;82.70;;;;;;5053494;28;20036;-55
2024/01/10 11:34:58;;;;;;;121.03;77.55;;;;;;;;;;5050220;28;20040;-55
2024/01/10 11:37:28;;;;;;;144.40;89.38;;;11.40;76.30;;;;;;5053139;28;20033;-53
2024/01/10 11:39:54;;;;;;;148.77;96.50;;;;;;;;;;5053020;28;20439;-54
2024/01/10 11:42:23;;;;;;;151.05;95.60;;;;;;;;;;5053236;28;20035;-54
2024/01/10 11:44:51;;;;;;;158.40;99.88;;;;;;;;;;5052929;28;20029;-55
2024/01/10 11:47:20;;;;;;;113.03;71.60;;;8.30;79.70;;;;;;5050668;28;20036;-53
2024/01/10 11:49:58;;;;;;;133.50;79.75;;;8.20;80.60;;;;;;5052731;28;20550;-52
2024/01/10 11:52:32;;;;;;;159.88;85.00;;;8.20;82.00;;;;;;5052763;28;20039;-55
2024/01/10 11:54:58;;;;;;;225.07;100.57;;;;;;;;;;5048621;28;20060;-52
2024/01/10 11:57:30;;;;;;;132.18;71.82;;;7.50;82.80;;;;;;5033228;28;20037;-52
2024/01/10 11:59:59;;;;;;;284.60;114.35;;;6.90;83.50;;;;;;5049601;28;20057;-52
2024/01/10 12:02:26;;;;;;;209.50;90.60;;;;;;;;;;5052107;28;20040;-51
2024/01/10 12:04:52;;;;;;;146.73;78.45;;;;;;;;;;5054898;28;20078;-53
2024/01/10 12:07:19;;;;;;;314.58;125.70;;;;;;;;;;5061818;28;20056;-51
2024/01/10 12:09:45;;;;;;;264.58;111.43;;;5.40;86.00;;;;;;5061404;28;20044;-53
2024/01/10 12:12:13;;;;;;;249.20;104.38;;;5.50;87.10;;;;;;5050110;28;20037;-50
2024/01/10 12:14:40;;;;;;;150.18;81.43;;;6.10;87.70;;;;;;5052086;28;20076;-50
2024/01/10 12:17:08;;;;;;;204.00;98.20;;;5.90;87.00;;;;;;5051380;28;20048;-51
2024/01/10 12:19:36;;;;;;;159.90;83.30;;;5.60;86.90;;;;;;5052192;28;20499;-53
2024/01/10 12:22:04;;;;;;;166.45;88.80;;;5.20;87.50;;;;;;5051971;28;20063;-50
2024/01/10 12:24:30;;;;;;;202.85;107.40;;;6.20;87.00;;;;;;5032873;28;20048;-52
2024/01/10 12:26:56;;;;;;;177.23;92.03;;;6.20;85.50;;;;;;5051519;28;20036;-52
2024/01/10 12:29:23;;;;;;;136.68;79.28;;;5.80;86.10;;;;;;5014497;28;20045;-49
2024/01/10 12:31:49;;;;;;;170.18;93.82;;;5.90;86.70;;;;;;5029712;28;20196;-52
2024/01/10 12:34:15;;;;;;;211.68;122.43;;;6.50;89.60;;;;;;5029375;28;20517;-52